Time;durP1;ratioP1;P1;durP2;ratioP2;P2;SDS_P1;SDS_P2;PMS_P1;PMS_P2;Temp;Humidity;BMP_temperature;BMP_pressure;BME280_temperature;BME280_humidity;BME280_pressure;Samples;Min_cycle;Max_cycle;Signal;HPM_P1;HPM_P2
2022/03/31 00:00:55;;;;;;;3.95;1.63;;;;;;;;;;5034736;28;20032;-47
2022/03/31 00:03:21;;;;;;;4.82;1.90;;;;;;;;;;5024865;28;20124;-46
2022/03/31 00:05:48;;;;;;;3.67;1.92;;;;;;;;;;5024376;28;20029;-49
2022/03/31 00:08:15;;;;;;;4.00;1.42;;;;;;;;;;5025450;28;20492;-47
2022/03/31 00:10:43;;;;;;;4.43;2.03;;;;;;;;;;5038109;28;20787;-50
2022/03/31 00:13:13;;;;;;;4.57;1.90;;;;;;;;;;5042605;28;20033;-47
2022/03/31 00:15:40;;;;;;;2.63;1.40;;;;;;;;;;5045487;28;20033;-50
2022/03/31 00:18:07;;;;;;;2.90;1.52;;;;;;;;;;5026121;28;20030;-49
2022/03/31 00:20:33;;;;;;;4.45;1.42;;;;;;;;;;5030557;28;20076;-49
2022/03/31 00:23:00;;;;;;;4.07;2.20;;;;;;;;;;5029660;28;20026;-49
2022/03/31 00:25:29;;;;;;;5.35;1.70;;;;;;;;;;5029171;28;20421;-48
2022/03/31 00:27:59;;;;;;;2.88;1.70;;;;;;;;;;5039010;28;20032;-48
2022/03/31 00:30:25;;;;;;;5.07;2.03;;;;;;;;;;5048963;28;20396;-49
2022/03/31 00:32:52;;;;;;;3.97;1.90;;;;;;;;;;5048368;28;20025;-49
2022/03/31 00:35:18;;;;;;;3.10;1.90;;;;;;;;;;5048691;28;20074;-50
2022/03/31 00:37:45;;;;;;;4.53;1.95;;;;;;;;;;5048475;28;20063;-46
2022/03/31 00:40:13;;;;;;;2.90;1.50;;;;;;;;;;5048776;28;20067;-46
2022/03/31 00:42:49;;;;;;;4.25;1.63;;;;;;;;;;5046607;28;20551;-48
2022/03/31 00:45:15;;;;;;;3.63;2.17;;;;;;;;;;5048673;28;20078;-47
2022/03/31 00:47:42;;;;;;;3.38;1.73;;;;;;;;;;5047972;28;20028;-49
2022/03/31 00:50:09;;;;;;;5.45;2.17;;;;;;;;;;5048696;28;20033;-46
2022/03/31 00:52:35;;;;;;;3.97;1.70;;;;;;;;;;5048197;28;20572;-49
2022/03/31 00:55:01;;;;;;;5.88;2.00;;;;;;;;;;5049413;28;20029;-50
2022/03/31 00:57:28;;;;;;;3.67;1.80;;;;;;;;;;5046679;28;20064;-47
2022/03/31 00:59:55;;;;;;;3.20;2.00;;;;;;;;;;5048269;28;20043;-50
2022/03/31 01:02:22;;;;;;;5.53;1.80;;;;;;;;;;5048056;28;20017;-47
2022/03/31 01:04:48;;;;;;;2.70;1.50;;;;;;;;;;5048001;28;20029;-49
2022/03/31 01:07:14;;;;;;;4.10;1.77;;;;;;;;;;5048229;28;20032;-46
2022/03/31 01:09:40;;;;;;;3.00;1.70;;;;;;;;;;5047732;28;20106;-50
2022/03/31 01:12:08;;;;;;;2.30;1.85;;;;;;;;;;5027494;28;20410;-48
2022/03/31 01:14:34;;;;;;;3.63;1.70;;;;;;;;;;5028180;28;20049;-48
2022/03/31 01:17:00;;;;;;;4.40;1.88;;;;;;;;;;5028479;28;20348;-50
2022/03/31 01:19:26;;;;;;;4.88;1.90;;;;;;;;;;5028264;28;20162;-49
2022/03/31 01:21:52;;;;;;;3.30;2.17;;;;;;;;;;5028048;28;20040;-48
2022/03/31 01:24:19;;;;;;;2.90;1.80;;;;;;;;;;5035062;28;20075;-46
2022/03/31 01:26:46;;;;;;;4.30;2.10;;;;;;;;;;5047397;28;20031;-49
2022/03/31 01:29:12;;;;;;;3.42;2.05;;;;;;;;;;5047953;28;20044;-47
2022/03/31 01:31:39;;;;;;;5.93;2.35;;;;;;;;;;5047162;28;20061;-49
2022/03/31 01:34:06;;;;;;;3.60;2.10;;;;;;;;;;5047665;28;20404;-47
2022/03/31 01:36:32;;;;;;;3.38;2.10;;;;;;;;;;5048219;28;20650;-48
2022/03/31 01:38:58;;;;;;;4.65;2.22;;;;;;;;;;5046155;28;20108;-48
2022/03/31 01:41:25;;;;;;;4.15;2.30;;;;;;;;;;5047653;28;20123;-47
2022/03/31 01:43:51;;;;;;;3.22;1.95;;;;;;;;;;5047323;28;20040;-49
2022/03/31 01:46:17;;;;;;;3.63;2.15;;;;;;;;;;5047329;28;20756;-46
2022/03/31 01:48:44;;;;;;;5.88;2.55;;;;;;;;;;5042527;28;20035;-45
2022/03/31 01:51:10;;;;;;;5.53;2.75;;;;;;;;;;5047656;28;20033;-48
2022/03/31 01:53:37;;;;;;;6.38;2.70;;;;;;;;;;5046608;28;20098;-47
2022/03/31 01:56:04;;;;;;;4.05;2.45;;;;;;;;;;5047429;28;20029;-46
2022/03/31 01:58:31;;;;;;;6.97;3.10;;;;;;;;;;5046896;28;20424;-46
2022/03/31 02:01:00;;;;;;;6.03;2.65;;;;;;;;;;5045984;28;20385;-48
2022/03/31 02:03:26;;;;;;;3.63;2.35;;;;;;;;;;5044435;28;20587;-47
2022/03/31 02:05:53;;;;;;;5.30;2.80;;;;;;;;;;5045213;28;20032;-49
2022/03/31 02:08:19;;;;;;;5.28;3.05;;;;;;;;;;5047217;28;20091;-46
2022/03/31 02:10:46;;;;;;;8.77;3.10;;;;;;;;;;5044789;28;20055;-46
2022/03/31 02:13:13;;;;;;;4.13;2.45;;;;;;;;;;5047185;28;20507;-48
2022/03/31 02:15:39;;;;;;;7.20;3.08;;;;;;;;;;5029578;28;20037;-50
2022/03/31 02:18:05;;;;;;;4.05;2.58;;;;;;;;;;5031624;28;20053;-50
2022/03/31 02:20:32;;;;;;;7.65;2.42;;;;;;;;;;5046679;28;20064;-49
2022/03/31 02:23:02;;;;;;;3.58;2.45;;;;;;;;;;5046969;28;20031;-49
2022/03/31 02:25:29;;;;;;;3.60;2.60;;;;;;;;;;5046417;28;20032;-49
2022/03/31 02:27:55;;;;;;;6.68;2.80;;;;;;;;;;5046721;28;20020;-46
2022/03/31 02:30:23;;;;;;;7.50;2.25;;;;;;;;;;5046710;28;20037;-46
2022/03/31 02:32:49;;;;;;;7.60;2.85;;;;;;;;;;5044755;28;20064;-50
2022/03/31 02:35:17;;;;;;;3.60;2.22;;;;;;;;;;5047275;28;20033;-49
2022/03/31 02:37:43;;;;;;;5.65;2.83;;;;;;;;;;5046438;28;20033;-50
2022/03/31 02:40:09;;;;;;;5.20;2.40;;;;;;;;;;5046801;28;20084;-48
2022/03/31 02:42:36;;;;;;;4.18;2.50;;;;;;;;;;5045889;28;20041;-48
2022/03/31 02:45:03;;;;;;;4.32;2.90;;;;;;;;;;5046260;28;20025;-48
2022/03/31 02:47:29;;;;;;;6.97;2.40;;;;;;;;;;5040518;28;20108;-47
2022/03/31 02:49:58;;;;;;;3.30;2.28;;;;;;;;;;5026703;28;20117;-50
2022/03/31 02:52:24;;;;;;;6.18;2.33;;;;;;;;;;5026589;28;20108;-48
2022/03/31 02:57:36;;;;;;;5.15;2.30;;;;;;;;;;5026309;28;20036;-49
2022/03/31 03:00:05;;;;;;;4.93;2.55;;;;;;;;;;5026163;28;20044;-47
2022/03/31 03:02:31;;;;;;;4.13;2.58;;;;;;;;;;5025749;28;20129;-46
2022/03/31 03:04:57;;;;;;;4.93;2.35;;;;;;;;;;5026021;28;20469;-49
2022/03/31 03:07:24;;;;;;;5.82;2.67;;;;;;;;;;5026365;28;20017;-48
2022/03/31 03:09:50;;;;;;;4.88;2.72;;;;;;;;;;5025849;28;20037;-48
2022/03/31 03:12:16;;;;;;;3.80;2.08;;;;;;;;;;5026798;28;20041;-49
2022/03/31 03:14:42;;;;;;;3.40;2.10;;;;;;;;;;5026106;28;20029;-49
2022/03/31 03:17:10;;;;;;;3.83;2.60;;;;;;;;;;5025874;28;20475;-46
2022/03/31 03:19:36;;;;;;;5.43;2.70;;;;;;;;;;5025967;28;20032;-49
2022/03/31 03:22:03;;;;;;;6.85;2.80;;;;;;;;;;5025843;28;20064;-50
2022/03/31 03:24:29;;;;;;;5.95;2.90;;;;;;;;;;5025724;28;20623;-47
2022/03/31 03:26:55;;;;;;;4.45;2.45;;;;;;;;;;5025923;28;20014;-45
2022/03/31 03:29:21;;;;;;;4.45;2.53;;;;;;;;;;5026129;28;20715;-49
2022/03/31 03:31:48;;;;;;;3.92;2.58;;;;;;;;;;5039311;28;20037;-46
2022/03/31 03:34:15;;;;;;;3.80;2.30;;;;;;;;;;5044936;28;20025;-47
2022/03/31 03:36:41;;;;;;;6.53;3.45;;;;;;;;;;5045943;28;20117;-48
2022/03/31 03:39:07;;;;;;;3.30;2.20;;;;;;;;;;5045675;28;20059;-49
2022/03/31 03:41:33;;;;;;;4.35;2.22;;;;;;;;;;5045376;28;20033;-49
2022/03/31 03:44:00;;;;;;;5.10;2.78;;;;;;;;;;5045832;28;20029;-48
2022/03/31 03:46:26;;;;;;;5.03;2.58;;;;;;;;;;5045871;28;20032;-46
2022/03/31 03:48:52;;;;;;;4.38;2.05;;;;;;;;;;5044301;28;20060;-46
2022/03/31 03:51:19;;;;;;;3.65;2.67;;;;;;;;;;5045718;28;20117;-46
2022/03/31 03:53:45;;;;;;;4.22;2.42;;;;;;;;;;5046221;28;20025;-46
2022/03/31 03:56:12;;;;;;;4.32;2.47;;;;;;;;;;5048731;28;20112;-50
2022/03/31 03:58:38;;;;;;;4.93;2.40;;;;;;;;;;5047730;28;20040;-48
2022/03/31 04:01:04;;;;;;;5.43;2.70;;;;;;;;;;5049246;28;20414;-49
2022/03/31 04:03:30;;;;;;;4.15;2.33;;;;;;;;;;5049003;28;20057;-48
2022/03/31 04:05:57;;;;;;;3.88;2.20;;;;;;;;;;5049515;28;20029;-47
2022/03/31 04:08:23;;;;;;;4.82;2.15;;;;;;;;;;5032754;28;20048;-49
2022/03/31 04:10:50;;;;;;;5.35;2.70;;;;;;;;;;5029253;28;20037;-47
2022/03/31 04:13:16;;;;;;;3.97;2.25;;;;;;;;;;5028540;28;20045;-46
2022/03/31 04:15:42;;;;;;;3.35;1.98;;;;;;;;;;5029260;28;20059;-48
2022/03/31 04:18:09;;;;;;;7.13;2.60;;;;;;;;;;5029299;28;20025;-48
2022/03/31 04:20:36;;;;;;;4.53;2.22;;;;;;;;;;5028918;28;20546;-50
2022/03/31 04:23:02;;;;;;;3.75;1.90;;;;;;;;;;5029178;28;20025;-46
2022/03/31 04:25:29;;;;;;;4.03;2.10;;;;;;;;;;5029266;28;20022;-48
2022/03/31 04:27:55;;;;;;;3.75;2.60;;;;;;;;;;5029345;28;20120;-50
2022/03/31 04:30:21;;;;;;;3.70;2.30;;;;;;;;;;5045390;28;20041;-48
2022/03/31 04:32:48;;;;;;;4.03;2.28;;;;;;;;;;5048805;28;20032;-49
2022/03/31 04:35:16;;;;;;;7.70;2.58;;;;;;;;;;5048863;28;20476;-49
2022/03/31 04:37:42;;;;;;;4.63;2.83;;;;;;;;;;5048337;28;20024;-47
2022/03/31 04:40:09;;;;;;;4.35;2.42;;;;;;;;;;5048655;28;20090;-48
2022/03/31 04:42:35;;;;;;;4.03;2.50;;;;;;;;;;5040606;28;20566;-48
2022/03/31 04:45:02;;;;;;;3.92;2.60;;;;;;;;;;5028753;28;20112;-50
2022/03/31 04:47:29;;;;;;;6.80;2.58;;;;;;;;;;5029079;28;20068;-47
2022/03/31 04:49:55;;;;;;;3.80;2.65;;;;;;;;;;5043115;28;20444;-49
2022/03/31 04:52:21;;;;;;;7.22;2.88;;;;;;;;;;5048419;28;20021;-49
2022/03/31 04:54:47;;;;;;;5.15;2.85;;;;;;;;;;5045735;28;20040;-48
2022/03/31 04:57:14;;;;;;;5.70;3.05;;;;;;;;;;5048575;28;20033;-48
2022/03/31 04:59:41;;;;;;;5.25;2.80;;;;;;;;;;5048069;28;20021;-48
2022/03/31 05:02:08;;;;;;;5.22;3.05;;;;;;;;;;5043055;28;20647;-46
2022/03/31 05:04:34;;;;;;;5.35;2.92;;;;;;;;;;5028238;28;20037;-47
2022/03/31 05:07:00;;;;;;;6.68;3.60;;;;;;;;;;5028553;28;20022;-50
2022/03/31 05:09:26;;;;;;;5.68;3.35;;;;;;;;;;5028850;28;20455;-50
2022/03/31 05:11:53;;;;;;;5.97;3.80;;;;;;;;;;5029173;28;20033;-50
2022/03/31 05:14:19;;;;;;;6.35;3.97;;;;;;;;;;5039478;28;20029;-49
2022/03/31 05:16:45;;;;;;;8.32;4.03;;;;;;;;;;5048015;28;20056;-50
2022/03/31 05:19:12;;;;;;;6.38;4.00;;;;;;;;;;5048247;28;20037;-48
2022/03/31 05:21:38;;;;;;;6.25;4.07;;;;;;;;;;5044072;28;20108;-49
2022/03/31 05:24:05;;;;;;;5.82;3.60;;;;;;;;;;5027892;28;20036;-49
2022/03/31 05:26:31;;;;;;;6.45;3.70;;;;;;;;;;5027636;28;20018;-48
2022/03/31 05:28:57;;;;;;;4.47;3.15;;;;;;;;;;5028416;28;20049;-46
2022/03/31 05:31:24;;;;;;;4.07;2.75;;;;;;;;;;5028088;28;20033;-48
2022/03/31 05:33:50;;;;;;;6.03;3.10;;;;;;;;;;5038616;28;20467;-49
2022/03/31 05:36:16;;;;;;;4.20;3.00;;;;;;;;;;5028064;28;20026;-46
2022/03/31 05:38:42;;;;;;;3.95;3.00;;;;;;;;;;5027557;28;20458;-47
2022/03/31 05:41:08;;;;;;;6.18;3.30;;;;;;;;;;5040361;28;20396;-48
2022/03/31 05:43:35;;;;;;;4.82;2.90;;;;;;;;;;5036183;28;20120;-49
2022/03/31 05:46:01;;;;;;;5.45;3.33;;;;;;;;;;5027658;28;20593;-46
2022/03/31 05:48:28;;;;;;;6.18;3.17;;;;;;;;;;5027911;28;20033;-46
2022/03/31 05:50:54;;;;;;;3.90;2.72;;;;;;;;;;5027655;28;20817;-49
2022/03/31 05:53:20;;;;;;;5.65;2.90;;;;;;;;;;5027631;28;20196;-47
2022/03/31 05:55:46;;;;;;;5.55;3.28;;;;;;;;;;5027328;28;20065;-48
2022/03/31 05:58:13;;;;;;;5.50;3.40;;;;;;;;;;5027930;28;20075;-50
2022/03/31 06:00:40;;;;;;;5.63;3.72;;;;;;;;;;5046919;28;20040;-46
2022/03/31 06:03:06;;;;;;;4.18;3.03;;;;;;;;;;5045497;28;20373;-48
2022/03/31 06:05:33;;;;;;;3.80;2.72;;;;;;;;;;5046939;28;20029;-47
2022/03/31 06:07:59;;;;;;;5.07;3.10;;;;;;;;;;5047771;28;20025;-47
2022/03/31 06:10:25;;;;;;;7.30;3.75;;;;;;;;;;5046945;28;20503;-49
2022/03/31 06:12:51;;;;;;;5.13;3.42;;;;;;;;;;5030453;28;20148;-47
2022/03/31 06:15:18;;;;;;;3.90;3.00;;;;;;;;;;5026931;28;20159;-48
2022/03/31 06:17:45;;;;;;;5.20;3.40;;;;;;;;;;5027185;28;20112;-45
2022/03/31 06:20:12;;;;;;;6.15;3.17;;;;;;;;;;5028380;28;20091;-47
2022/03/31 06:22:38;;;;;;;5.00;3.58;;;;;;;;;;5026661;28;20021;-48
2022/03/31 06:25:06;;;;;;;4.40;2.70;;;;;;;;;;5026919;28;20026;-49
2022/03/31 06:27:33;;;;;;;4.95;2.83;;;;;;;;;;5026613;28;20043;-50
2022/03/31 06:30:00;;;;;;;5.95;3.72;;;;;;;;;;5026911;28;20101;-50
2022/03/31 06:32:26;;;;;;;8.05;3.85;;;;;;;;;;5030072;28;20091;-50
2022/03/31 06:34:53;;;;;;;6.22;3.45;;;;;;;;;;5030763;28;20525;-50
2022/03/31 06:37:20;;;;;;;6.38;3.58;;;;;;;;;;5030277;28;20127;-49
2022/03/31 06:39:47;;;;;;;4.15;3.10;;;;;;;;;;5039889;28;20025;-47
2022/03/31 06:42:14;;;;;;;5.35;3.55;;;;;;;;;;5034318;28;20396;-46
2022/03/31 06:44:41;;;;;;;5.50;3.10;;;;;;;;;;5035406;28;20036;-47
2022/03/31 06:47:07;;;;;;;5.40;3.03;;;;;;;;;;5027095;28;20035;-46
2022/03/31 06:49:36;;;;;;;5.22;3.70;;;;;;;;;;5027104;28;20032;-46
2022/03/31 06:52:02;;;;;;;3.95;2.67;;;;;;;;;;5028908;28;20372;-46
2022/03/31 06:54:30;;;;;;;4.38;3.00;;;;;;;;;;5027794;28;20124;-49
2022/03/31 06:56:57;;;;;;;5.13;3.13;;;;;;;;;;5036747;28;20074;-47
2022/03/31 06:59:23;;;;;;;4.18;2.92;;;;;;;;;;5032171;28;20036;-47
2022/03/31 07:01:49;;;;;;;6.20;3.90;;;;;;;;;;5027766;28;20033;-47
2022/03/31 07:04:16;;;;;;;6.68;4.00;;;;;;;;;;5026186;28;20029;-47
2022/03/31 07:06:43;;;;;;;6.55;3.65;;;;;;;;;;5034980;28;20021;-49
2022/03/31 07:09:09;;;;;;;5.18;3.30;;;;;;;;;;5036107;28;20029;-48
2022/03/31 07:11:35;;;;;;;5.15;3.53;;;;;;;;;;5040222;28;20060;-49
2022/03/31 07:14:01;;;;;;;4.85;3.47;;;;;;;;;;5043693;28;20033;-46
2022/03/31 07:16:31;;;;;;;5.38;3.13;;;;;;;;;;5026868;28;20030;-47
2022/03/31 07:19:03;;;;;;;3.53;3.13;;;;;;;;;;5032821;28;20025;-46
2022/03/31 07:21:30;;;;;;;4.30;2.70;;;;;;;;;;5036361;28;20036;-46
2022/03/31 07:23:56;;;;;;;5.80;3.50;;;;;;;;;;5028256;28;20112;-48
2022/03/31 07:26:22;;;;;;;4.95;3.20;;;;;;;;;;5024752;28;20049;-51
2022/03/31 07:28:49;;;;;;;6.43;3.15;;;;;;;;;;5034361;28;20096;-48
2022/03/31 07:31:15;;;;;;;5.57;3.83;;;;;;;;;;5048657;28;20033;-46
2022/03/31 07:33:42;;;;;;;5.07;3.03;;;;;;;;;;5048018;28;20566;-49
2022/03/31 07:36:10;;;;;;;5.63;3.10;;;;;;;;;;5048338;28;20029;-49
2022/03/31 07:38:36;;;;;;;7.15;3.60;;;;;;;;;;5048054;28;20111;-50
2022/03/31 07:41:03;;;;;;;5.13;3.55;;;;;;;;;;5048480;28;20075;-46
2022/03/31 07:43:29;;;;;;;5.63;3.40;;;;;;;;;;5048333;28;20059;-46
2022/03/31 07:45:56;;;;;;;5.78;3.65;;;;;;;;;;5049540;28;20049;-46
2022/03/31 07:48:22;;;;;;;5.95;4.00;;;;;;;;;;5048168;28;20100;-46
2022/03/31 07:50:48;;;;;;;6.15;3.60;;;;;;;;;;5048059;28;20037;-46
2022/03/31 07:53:17;;;;;;;4.82;3.50;;;;;;;;;;5048207;28;20040;-45
2022/03/31 07:55:43;;;;;;;5.40;3.22;;;;;;;;;;5047872;28;20060;-47
2022/03/31 07:58:09;;;;;;;6.07;3.80;;;;;;;;;;5047873;28;20029;-46
2022/03/31 08:00:35;;;;;;;4.68;3.35;;;;;;;;;;5047717;28;20677;-47
2022/03/31 08:03:01;;;;;;;6.47;3.22;;;;;;;;;;5047939;28;20041;-46
2022/03/31 08:05:29;;;;;;;4.40;3.05;;;;;;;;;;5048429;28;20471;-47
2022/03/31 08:07:56;;;;;;;5.57;3.55;;;;;;;;;;5048452;28;20526;-45
2022/03/31 08:10:23;;;;;;;5.20;3.35;;;;;;;;;;5047499;28;20064;-46
2022/03/31 08:12:49;;;;;;;5.28;3.58;;;;;;;;;;5047353;28;20029;-46
2022/03/31 08:15:16;;;;;;;6.18;2.90;;;;;;;;;;5047894;28;20029;-48
2022/03/31 08:17:44;;;;;;;5.20;3.28;;;;;;;;;;5047286;28;20033;-48
2022/03/31 08:20:13;;;;;;;10.02;5.40;;;;;;;;;;5047639;28;20075;-50
2022/03/31 08:22:39;;;;;;;9.95;6.15;;;;;;;;;;5047493;28;20028;-51
2022/03/31 08:25:07;;;;;;;14.82;5.75;;;;;;;;;;5047710;28;20106;-49
2022/03/31 08:27:35;;;;;;;12.93;6.18;;;;;;;;;;5046822;28;20025;-52
2022/03/31 08:30:01;;;;;;;8.70;5.53;;;;;;;;;;5047732;28;20029;-47
2022/03/31 08:32:27;;;;;;;9.07;5.15;;;;;;;;;;5047384;28;20099;-51
2022/03/31 08:34:53;;;;;;;8.02;4.65;;;;;;;;;;5047184;28;20452;-47
2022/03/31 08:37:19;;;;;;;7.20;4.10;;;;;;;;;;5047458;28;20036;-48
2022/03/31 08:39:46;;;;;;;6.05;3.80;;;;;;;;;;5047008;28;20127;-46
2022/03/31 08:42:12;;;;;;;6.47;3.60;;;;;;;;;;5046607;28;20412;-49
2022/03/31 08:44:39;;;;;;;7.18;3.65;;;;;;;;;;5046875;28;20029;-48
2022/03/31 08:47:08;;;;;;;5.13;3.60;;;;;;;;;;5047667;28;20112;-47
2022/03/31 08:49:35;;;;;;;9.00;4.45;;;;;;;;;;5046789;28;20032;-50
2022/03/31 08:52:02;;;;;;;7.50;4.45;;;;;;;;;;5047394;28;20045;-47
2022/03/31 08:54:29;;;;;;;6.32;3.58;;;;;;;;;;5047192;28;20256;-45
2022/03/31 08:56:55;;;;;;;5.97;3.58;;;;;;;;;;5047567;28;20029;-46
2022/03/31 08:59:22;;;;;;;9.10;3.88;;;;;;;;;;5047300;28;20396;-50
2022/03/31 09:01:48;;;;;;;6.05;3.63;;;;;;;;;;5046345;28;20052;-47
2022/03/31 09:04:23;;;;;;;6.03;3.30;;;;;;;;;;5046619;28;20025;-46
2022/03/31 09:07:01;;;;;;;6.68;3.58;;;;;;;;;;5046554;28;20082;-47
2022/03/31 09:09:28;;;;;;;4.82;3.20;;;;;;;;;;5047241;28;20415;-46
2022/03/31 09:11:54;;;;;;;4.75;2.97;;;;;;;;;;5046652;28;20040;-46
2022/03/31 09:14:30;;;;;;;5.13;3.15;;;;;;;;;;5045189;28;20035;-47
2022/03/31 09:16:58;;;;;;;5.75;3.15;;;;;;;;;;5047214;28;20037;-46
2022/03/31 09:19:25;;;;;;;5.60;3.35;;;;;;;;;;5046446;28;20032;-48
2022/03/31 09:21:57;;;;;;;5.45;3.45;;;;;;;;;;5046031;28;20135;-47
2022/03/31 09:24:26;;;;;;;7.78;4.15;;;;;;;;;;5046574;28;20029;-47
2022/03/31 09:26:53;;;;;;;6.78;4.15;;;;;;;;;;5046057;28;20076;-46
2022/03/31 09:29:23;;;;;;;6.85;3.95;;;;;;;;;;5046277;28;20462;-46
2022/03/31 09:31:53;;;;;;;8.27;4.25;;;;;;;;;;5046283;28;20025;-46
2022/03/31 09:34:19;;;;;;;9.10;5.18;;;;;;;;;;5046143;28;20104;-46
2022/03/31 09:36:50;;;;;;;7.97;5.00;;;;;;;;;;5045923;28;20578;-48
2022/03/31 09:39:17;;;;;;;7.18;4.47;;;;;;;;;;5046209;28;20412;-47
2022/03/31 09:41:47;;;;;;;6.20;3.92;;;;;;;;;;5045515;28;20159;-45
2022/03/31 09:44:13;;;;;;;7.03;4.03;;;;;;;;;;5045963;28;20415;-46
2022/03/31 09:46:40;;;;;;;7.03;3.80;;;;;;;;;;5045741;28;20099;-46
2022/03/31 09:49:09;;;;;;;9.23;5.32;;;;;;;;;;5046113;28;20440;-46
2022/03/31 09:51:36;;;;;;;9.43;4.68;;;;;;;;;;5045237;28;20512;-47
2022/03/31 09:54:02;;;;;;;6.25;3.92;;;;;;;;;;5045098;28;20558;-48
2022/03/31 09:56:29;;;;;;;8.75;4.72;;;;;;;;;;5045932;28;20136;-47
2022/03/31 09:58:59;;;;;;;7.07;4.90;;;;;;;;;;5045729;28;20029;-47
2022/03/31 10:01:25;;;;;;;9.35;5.03;;;;;;;;;;5045981;28;20508;-46
2022/03/31 10:03:54;;;;;;;9.10;5.03;;;;;;;;;;5045412;28;20033;-47
2022/03/31 10:06:20;;;;;;;8.70;5.07;;;;;;;;;;5045734;28;20037;-47
2022/03/31 10:08:48;;;;;;;10.43;5.55;;;;;;;;;;5045320;28;20033;-46
2022/03/31 10:11:14;;;;;;;10.75;5.25;;;;;;;;;;5045413;28;20032;-50
2022/03/31 10:13:55;;;;;;;11.98;5.88;;;;;;;;;;5045249;28;20079;-49
2022/03/31 10:16:26;;;;;;;11.70;6.75;;;;;;;;;;5045395;28;20112;-49
2022/03/31 10:18:52;;;;;;;9.45;6.10;;;;;;;;;;5045401;28;20108;-47
2022/03/31 10:21:29;;;;;;;9.98;5.65;;;;;;;;;;5045316;28;20146;-47
2022/03/31 10:26:42;;;;;;;12.23;5.95;;;;;;;;;;5045144;28;20044;-47
2022/03/31 10:29:16;;;;;;;9.07;5.57;;;;;;;;;;5045136;28;20021;-48
2022/03/31 10:31:42;;;;;;;;;;;;;;;;;;5045267;28;20036;-47
2022/03/31 10:34:10;;;;;;;7.30;4.30;;;;;;;;;;5042300;28;19947;-46
2022/03/31 10:36:45;;;;;;;8.40;4.63;;;;;;;;;;5028822;28;20044;-46
2022/03/31 10:39:11;;;;;;;;;;;;;;;;;;5037558;28;20447;-46
2022/03/31 10:41:39;;;;;;;6.00;4.13;;;;;;;;;;5034912;28;19990;-46
2022/03/31 10:44:11;;;;;;;6.07;3.50;;;;;;;;;;5031919;28;20025;-50
2022/03/31 10:46:38;;;;;;;5.10;2.90;;;;;;;;;;5036613;28;20122;-46
2022/03/31 10:49:10;;;;;;;5.45;3.25;;;;;;;;;;5038264;28;20047;-47
2022/03/31 10:51:41;;;;;;;6.50;3.88;;;;;;;;;;5033361;28;20100;-46
2022/03/31 10:54:09;;;;;;;7.07;4.22;;;;;;;;;;5027741;28;20083;-48
2022/03/31 10:56:35;;;;;;;10.55;4.50;;;;;;;;;;5033379;28;20140;-49
2022/03/31 10:59:03;;;;;;;10.13;3.90;;;;;;;;;;5033767;28;20123;-47
2022/03/31 11:01:34;;;;;;;6.45;3.75;;;;;;;;;;5044092;28;20044;-47
2022/03/31 11:04:08;;;;;;;5.68;2.65;;;;;;;;;;5038303;28;20067;-47
2022/03/31 11:06:45;;;;;;;4.22;2.33;;;;;;;;;;5044994;28;20025;-46
2022/03/31 11:09:20;;;;;;;2.70;2.10;;;;;;;;;;5045494;28;20044;-46
2022/03/31 11:11:50;;;;;;;4.03;2.00;;;;;;;;;;5045667;28;20416;-49
2022/03/31 11:14:17;;;;;;;4.05;2.13;;;;;;;;;;5046239;28;20032;-47
2022/03/31 11:16:44;;;;;;;3.00;2.00;;;;;;;;;;5045715;28;20036;-49
2022/03/31 11:19:10;;;;;;;2.47;1.67;;;;;;;;;;5046209;28;20040;-47
2022/03/31 11:21:37;;;;;;;2.53;2.08;;;;;;;;;;5045714;28;20025;-46
2022/03/31 11:24:05;;;;;;;3.50;1.45;;;;;;;;;;5046016;28;20047;-45
2022/03/31 11:26:32;;;;;;;3.08;2.20;;;;;;;;;;5045726;28;20032;-46
2022/03/31 11:28:59;;;;;;;2.35;1.92;;;;;;;;;;5028496;28;20033;-46
2022/03/31 11:31:26;;;;;;;2.63;1.90;;;;;;;;;;5026549;28;20025;-46
2022/03/31 11:33:52;;;;;;;2.80;2.20;;;;;;;;;;5026098;28;20025;-45
2022/03/31 11:36:18;;;;;;;3.42;2.35;;;;;;;;;;5025826;28;20029;-46
2022/03/31 11:38:57;;;;;;;2.97;2.35;;;;;;;;;;5040027;28;20055;-46
2022/03/31 11:41:24;;;;;;;2.53;2.20;;;;;;;;;;5037761;28;20033;-48
2022/03/31 11:43:50;;;;;;;3.05;2.50;;;;;;;;;;5041182;28;20036;-45
2022/03/31 11:46:16;;;;;;;4.00;2.97;;;;;;;;;;5031705;28;20547;-46
2022/03/31 11:48:45;;;;;;;2.75;2.10;;;;;;;;;;5045618;28;20060;-48
2022/03/31 11:51:13;;;;;;;2.80;2.00;;;;;;;;;;5037196;28;20037;-48
2022/03/31 11:53:43;;;;;;;1.67;1.58;;;;;;;;;;5047632;28;20040;-48
2022/03/31 11:56:15;;;;;;;4.15;2.20;;;;;;;;;;5042029;28;20032;-47
2022/03/31 11:58:48;;;;;;;1.98;1.63;;;;;;;;;;5043121;28;20037;-48
2022/03/31 12:01:15;;;;;;;2.70;2.28;;;;;;;;;;5036714;28;20400;-48
2022/03/31 12:03:42;;;;;;;3.67;2.28;;;;;;;;;;5039881;28;20506;-46
2022/03/31 12:06:08;;;;;;;4.25;2.38;;;;;;;;;;5025861;28;20030;-47
2022/03/31 12:08:35;;;;;;;2.88;1.85;;;;;;;;;;5038809;28;20036;-48
2022/03/31 12:11:01;;;;;;;2.38;1.98;;;;;;;;;;5025680;28;20072;-46
2022/03/31 12:13:28;;;;;;;3.05;2.35;;;;;;;;;;5026959;28;20059;-46
2022/03/31 12:16:02;;;;;;;2.25;2.03;;;;;;;;;;5029581;28;20030;-45
2022/03/31 12:18:30;;;;;;;3.30;2.27;;;;;;;;;;5038715;28;20029;-47
2022/03/31 12:21:01;;;;;;;2.55;2.10;;;;;;;;;;5047349;28;20501;-46
2022/03/31 12:23:27;;;;;;;2.40;1.88;;;;;;;;;;5047983;28;20095;-48
2022/03/31 12:25:54;;;;;;;2.20;1.70;;;;;;;;;;5033947;28;20029;-45
2022/03/31 12:28:23;;;;;;;2.17;1.80;;;;;;;;;;5039454;28;20996;-48
2022/03/31 12:30:56;;;;;;;2.30;1.63;;;;;;;;;;5035714;28;20038;-46
2022/03/31 12:33:34;;;;;;;3.22;2.05;;;;;;;;;;5048418;28;20029;-47
2022/03/31 12:36:08;;;;;;;2.42;1.88;;;;;;;;;;5049219;28;20053;-45
2022/03/31 12:38:34;;;;;;;2.90;1.80;;;;;;;;;;5035809;28;20040;-48
2022/03/31 12:41:00;;;;;;;2.33;1.75;;;;;;;;;;5034183;28;20033;-49
2022/03/31 12:43:26;;;;;;;1.90;1.30;;;;;;;;;;5038932;28;20049;-47
2022/03/31 12:45:53;;;;;;;2.28;1.63;;;;;;;;;;5039624;28;20709;-49
2022/03/31 12:48:20;;;;;;;2.72;1.65;;;;;;;;;;5045227;28;20029;-46
2022/03/31 12:50:47;;;;;;;2.30;1.33;;;;;;;;;;5049043;28;20561;-47
2022/03/31 12:53:14;;;;;;;1.50;1.33;;;;;;;;;;5042222;28;20037;-46
2022/03/31 12:55:41;;;;;;;1.70;1.40;;;;;;;;;;5029382;28;20045;-45
2022/03/31 12:58:08;;;;;;;2.80;1.38;;;;;;;;;;5029277;28;20115;-46
2022/03/31 13:00:34;;;;;;;3.45;1.98;;;;;;;;;;5028948;28;20033;-48
2022/03/31 13:03:01;;;;;;;2.05;1.70;;;;;;;;;;5039229;28;20029;-46
2022/03/31 13:05:28;;;;;;;1.67;1.25;;;;;;;;;;5040311;28;20039;-46
2022/03/31 13:07:55;;;;;;;2.25;1.60;;;;;;;;;;5049105;28;20131;-45
2022/03/31 13:10:22;;;;;;;1.48;1.30;;;;;;;;;;5045427;28;20040;-46
2022/03/31 13:12:48;;;;;;;1.30;1.13;;;;;;;;;;5035931;28;20049;-48
2022/03/31 13:15:16;;;;;;;2.78;1.60;;;;;;;;;;5027969;28;20029;-46
2022/03/31 13:17:45;;;;;;;1.50;1.40;;;;;;;;;;5027616;28;20403;-47
2022/03/31 13:20:11;;;;;;;1.40;1.27;;;;;;;;;;5034958;28;20037;-46
2022/03/31 13:22:38;;;;;;;2.50;1.58;;;;;;;;;;5041310;28;20025;-48
2022/03/31 13:25:06;;;;;;;1.92;1.55;;;;;;;;;;5043524;28;20032;-48
2022/03/31 13:27:33;;;;;;;1.92;1.67;;;;;;;;;;5029357;28;20025;-47
2022/03/31 13:29:59;;;;;;;2.00;1.48;;;;;;;;;;5037426;28;20037;-46
2022/03/31 13:32:26;;;;;;;1.98;1.55;;;;;;;;;;5033462;28;20421;-45
2022/03/31 13:34:52;;;;;;;1.90;1.55;;;;;;;;;;5028867;28;20091;-45
2022/03/31 13:37:22;;;;;;;2.15;1.73;;;;;;;;;;5028982;28;20033;-45
2022/03/31 13:39:49;;;;;;;2.45;2.00;;;;;;;;;;5035058;28;20033;-48
2022/03/31 13:42:16;;;;;;;2.22;1.92;;;;;;;;;;5045154;28;20136;-46
2022/03/31 13:44:42;;;;;;;3.15;2.10;;;;;;;;;;5046999;28;20052;-48
2022/03/31 13:47:09;;;;;;;1.80;1.52;;;;;;;;;;5047491;28;20026;-48
2022/03/31 13:49:36;;;;;;;3.47;2.00;;;;;;;;;;5047269;28;20033;-47
2022/03/31 13:52:03;;;;;;;2.30;2.05;;;;;;;;;;5046961;28;20033;-47
2022/03/31 13:54:31;;;;;;;3.33;1.77;;;;;;;;;;5046784;28;20033;-49
2022/03/31 13:56:58;;;;;;;2.95;1.70;;;;;;;;;;5047684;28;20025;-45
2022/03/31 14:02:11;;;;;;;2.80;2.20;;;;;;;;;;5045129;28;20040;-47
2022/03/31 14:04:38;;;;;;;3.70;2.90;;;;;;;;;;5035360;28;20025;-46
2022/03/31 14:07:06;;;;;;;3.63;2.60;;;;;;;;;;5047084;28;20029;-45
2022/03/31 14:09:34;;;;;;;4.68;2.63;;;;;;;;;;5045169;28;20032;-49
2022/03/31 14:12:00;;;;;;;4.10;3.08;;;;;;;;;;5035081;28;20464;-46
2022/03/31 14:14:27;;;;;;;4.70;3.13;;;;;;;;;;5038200;28;20028;-48
2022/03/31 14:16:56;;;;;;;4.40;3.38;;;;;;;;;;5049533;28;20421;-46
2022/03/31 14:19:24;;;;;;;6.55;3.95;;;;;;;;;;5046562;28;20056;-47
2022/03/31 14:21:51;;;;;;;4.88;3.58;;;;;;;;;;5046266;28;20052;-45
2022/03/31 14:24:19;;;;;;;7.85;4.20;;;;;;;;;;5026442;28;20021;-47
2022/03/31 14:26:46;;;;;;;7.70;4.93;;;;;;;;;;5033030;28;20506;-47
2022/03/31 14:29:13;;;;;;;8.02;5.28;;;;;;;;;;5030625;28;20497;-46
2022/03/31 14:31:40;;;;;;;11.77;7.30;;;;;;;;;;5026495;28;20504;-45
2022/03/31 14:34:07;;;;;;;10.75;7.43;;;;;;;;;;5036201;28;20413;-49
2022/03/31 14:36:34;;;;;;;13.82;7.85;;;;;;;;;;5046143;28;20036;-48
2022/03/31 14:39:01;;;;;;;14.98;9.10;;;;;;;;;;5048083;28;20035;-45
2022/03/31 14:41:27;;;;;;;13.98;9.32;;;;;;;;;;5030678;28;20102;-46
2022/03/31 14:43:59;;;;;;;18.38;10.80;;;;;;;;;;5030578;28;20128;-46
2022/03/31 14:46:26;;;;;;;17.67;10.90;;;;;;;;;;5042361;28;20040;-48
2022/03/31 14:48:52;;;;;;;17.33;9.60;;;;;;;;;;5033757;28;20484;-46
2022/03/31 14:51:21;;;;;;;12.68;7.97;;;;;;;;;;5036789;28;20507;-45